createdAt,value
2019-04-22T00:01:45.659Z,12.93
2019-04-22T00:05:04.768Z,12.40
2019-04-22T00:08:24.275Z,11.07
2019-04-22T00:11:31.857Z,10.73
2019-04-22T00:14:33.961Z,14.10
2019-04-22T00:17:55.146Z,13.73
2019-04-22T00:20:54.558Z,14.30
2019-04-22T00:24:01.246Z,12.77
2019-04-22T00:27:03.856Z,11.20
2019-04-22T00:30:16.527Z,11.37
2019-04-22T00:33:26.822Z,13.30
2019-04-22T00:36:30.163Z,15.00
2019-04-22T00:39:44.125Z,12.97
2019-04-22T00:42:47.736Z,22.57
2019-04-22T00:45:55.452Z,11.80
2019-04-22T00:49:44.112Z,14.47
2019-04-22T00:52:09.347Z,13.50
2019-04-22T00:55:23.061Z,11.07
2019-04-22T00:58:25.686Z,9.73
2019-04-22T01:01:32.193Z,14.30
2019-04-22T01:04:40.688Z,10.47
2019-04-22T01:07:43.171Z,13.70
2019-04-22T01:10:55.425Z,12.60
2019-04-22T01:14:04.861Z,13.30
2019-04-22T01:17:06.385Z,11.60
2019-04-22T01:20:38.487Z,14.67
2019-04-22T01:23:24.036Z,11.47
2019-04-22T01:26:27.121Z,12.30
2019-04-22T01:29:30.391Z,12.67
2019-04-22T01:32:31.083Z,11.63
2019-04-22T01:35:48.959Z,11.70
2019-04-22T01:39:07.234Z,13.07
2019-04-22T01:45:22.730Z,10.10
2019-04-22T01:48:26.119Z,13.10
2019-04-22T01:51:50.017Z,13.47
2019-04-22T01:54:52.698Z,13.60
2019-04-22T01:57:47.637Z,12.60
2019-04-22T02:00:59.722Z,14.80
2019-04-22T02:04:01.357Z,11.60
2019-04-22T02:07:16.750Z,13.57
2019-04-22T02:10:25.885Z,13.93
2019-04-22T02:13:33.517Z,12.33
2019-04-22T02:16:34.263Z,10.77
2019-04-22T02:26:40.487Z,11.17
2019-04-22T02:33:21.963Z,14.73
2019-04-22T02:42:14.135Z,15.87
2019-04-22T02:45:26.357Z,15.97
2019-04-22T02:54:49.088Z,14.10
2019-04-22T02:57:49.111Z,15.03
2019-04-22T03:01:05.431Z,15.83
2019-04-22T03:07:09.049Z,14.40
2019-04-22T03:10:29.525Z,16.63
2019-04-22T03:13:40.555Z,12.50
2019-04-22T03:16:40.635Z,12.80
2019-04-22T03:19:50.413Z,14.10
2019-04-22T03:22:55.743Z,17.60
2019-04-22T03:29:18.026Z,16.43
2019-04-22T03:32:40.571Z,18.70
2019-04-22T03:38:43.912Z,16.27
2019-04-22T03:44:51.457Z,15.07
2019-04-22T03:47:56.154Z,14.73
2019-04-22T03:50:55.141Z,21.80
2019-04-22T03:54:10.991Z,13.33
2019-04-22T04:00:26.613Z,13.53
2019-04-22T04:03:53.509Z,22.70
2019-04-22T04:06:52.557Z,15.90
2019-04-22T04:16:10.703Z,21.60
2019-04-22T04:19:13.821Z,18.10
2019-04-22T04:22:26.745Z,19.20
2019-04-22T04:28:50.982Z,17.27
2019-04-22T04:31:51.152Z,18.83
2019-04-22T04:37:51.895Z,15.70
2019-04-22T04:41:03.707Z,16.40
2019-04-22T04:44:31.744Z,18.47
2019-04-22T04:47:28.798Z,19.00
2019-04-22T04:50:18.329Z,17.33
2019-04-22T04:53:33.665Z,16.73
2019-04-22T04:56:36.109Z,21.50
2019-04-22T04:59:57.750Z,18.30
2019-04-22T05:02:55.878Z,19.17
2019-04-22T05:05:54.663Z,15.47
2019-04-22T05:09:13.535Z,20.70
2019-04-22T05:12:12.366Z,20.07
2019-04-22T05:15:18.501Z,22.97
2019-04-22T05:18:24.038Z,20.87
2019-04-22T05:21:22.335Z,16.00
2019-04-22T05:30:41.971Z,19.77
2019-04-22T05:33:47.753Z,19.70
2019-04-22T05:37:01.181Z,16.70
2019-04-22T05:40:10.319Z,20.60
2019-04-22T05:43:15.908Z,17.87
2019-04-22T05:46:17.267Z,17.80
2019-04-22T05:49:23.781Z,20.67
2019-04-22T05:52:31.634Z,20.60
2019-04-22T05:55:42.007Z,19.40
2019-04-22T05:58:54.739Z,18.57
2019-04-22T06:01:59.800Z,17.43
2019-04-22T06:05:04.841Z,18.63
2019-04-22T06:08:10.238Z,17.80
2019-04-22T06:11:24.107Z,20.90
2019-04-22T06:14:23.010Z,17.47
2019-04-22T06:20:45.508Z,16.90
2019-04-22T06:23:58.879Z,26.87
2019-04-22T06:27:01.544Z,18.77
2019-04-22T06:30:05.640Z,20.70
2019-04-22T06:33:15.188Z,19.23
2019-04-22T06:36:15.678Z,15.90
2019-04-22T06:39:28.105Z,19.47
2019-04-22T06:42:36.539Z,18.90
2019-04-22T06:45:51.736Z,15.80
2019-04-22T06:48:48.537Z,18.93
2019-04-22T06:52:00.170Z,17.07
2019-04-22T06:55:11.731Z,18.60
2019-04-22T06:58:10.415Z,18.87
2019-04-22T07:04:22.232Z,17.53
2019-04-22T07:07:31.157Z,20.37
2019-04-22T07:10:42.031Z,18.57
2019-04-22T07:14:01.327Z,17.83
2019-04-22T07:16:54.496Z,19.00
2019-04-22T07:19:58.344Z,20.07
2019-04-22T07:23:10.698Z,17.17
2019-04-22T07:26:24.771Z,18.33
2019-04-22T07:29:21.771Z,19.20
2019-04-22T07:35:51.583Z,17.50
2019-04-22T07:38:38.502Z,19.10
2019-04-22T07:41:51.453Z,17.87
2019-04-22T07:45:08.642Z,16.20
2019-04-22T07:48:18.850Z,19.57
2019-04-22T07:51:13.506Z,18.00
2019-04-22T07:54:20.811Z,17.90
2019-04-22T08:00:39.098Z,18.03
2019-04-22T08:03:53.387Z,16.33
2019-04-22T08:06:51.984Z,17.67
2019-04-22T08:13:03.704Z,15.77
2019-04-22T08:16:10.383Z,13.97
2019-04-22T08:19:23.587Z,14.53
2019-04-22T08:22:25.973Z,16.30
2019-04-22T08:25:40.141Z,15.27
2019-04-22T08:28:53.295Z,17.53
2019-04-22T08:35:06.800Z,15.83
2019-04-22T08:38:11.506Z,18.20
2019-04-22T08:41:28.931Z,13.80
2019-04-22T08:44:39.091Z,14.50
2019-04-22T08:47:38.467Z,14.97
2019-04-22T08:50:44.262Z,11.97
2019-04-22T08:53:56.219Z,12.90
2019-04-22T08:56:56.960Z,8.30
2019-04-22T09:00:02.861Z,8.00
2019-04-22T09:03:10.353Z,4.20
2019-04-22T09:06:29.990Z,5.37
2019-04-22T09:09:27.176Z,5.80
2019-04-22T09:12:53.350Z,5.10
2019-04-22T09:15:47.423Z,6.13
2019-04-22T09:18:56.089Z,7.60
2019-04-22T09:22:00.576Z,9.43
2019-04-22T09:25:03.237Z,8.83
2019-04-22T09:28:30.585Z,5.93
2019-04-22T09:31:19.282Z,5.07
2019-04-22T09:34:32.092Z,6.70
2019-04-22T09:37:34.520Z,6.50
2019-04-22T09:40:43.145Z,5.87
2019-04-22T09:43:53.710Z,5.70
2019-04-22T09:46:51.982Z,6.73
2019-04-22T09:53:17.138Z,6.70
2019-04-22T09:56:24.094Z,10.73
2019-04-22T09:59:28.563Z,5.97
2019-04-22T10:02:42.659Z,5.23
2019-04-22T10:06:09.946Z,5.93
2019-04-22T10:09:02.260Z,5.43
2019-04-22T10:11:56.320Z,5.40
2019-04-22T10:14:59.935Z,5.90
2019-04-22T10:18:10.481Z,6.50
2019-04-22T10:21:24.299Z,9.90
2019-04-22T10:24:21.573Z,6.07
2019-04-22T10:27:32.435Z,6.67
2019-04-22T10:30:47.326Z,8.00
2019-04-22T10:33:42.252Z,6.97
2019-04-22T10:36:28.777Z,7.13
2019-04-22T10:39:46.092Z,7.50
2019-04-22T10:42:47.242Z,8.33
2019-04-22T10:45:54.557Z,8.33
2019-04-22T10:49:00.202Z,7.77
2019-04-22T10:52:06.713Z,8.90
2019-04-22T10:55:13.830Z,10.10
2019-04-22T10:58:20.945Z,8.97
2019-04-22T11:01:27.597Z,8.90
2019-04-22T11:04:34.284Z,11.00
2019-04-22T11:07:47.582Z,7.47
2019-04-22T11:11:00.634Z,9.23
2019-04-22T11:13:53.996Z,11.10
2019-04-22T11:17:02.273Z,11.70
2019-04-22T11:20:07.937Z,8.73
2019-04-22T11:23:14.415Z,8.63
2019-04-22T11:26:21.878Z,9.73
2019-04-22T11:29:27.881Z,9.20
2019-04-22T11:32:33.447Z,8.77
2019-04-22T11:35:39.632Z,10.60
2019-04-22T11:38:52.384Z,7.90
2019-04-22T11:41:52.138Z,8.27
2019-04-22T11:44:57.472Z,9.30
2019-04-22T11:48:03.585Z,11.23
2019-04-22T11:51:09.735Z,8.53
2019-04-22T11:54:16.968Z,9.53
2019-04-22T11:57:23.633Z,9.73
2019-04-22T12:00:35.126Z,11.17
2019-04-22T12:03:41.990Z,9.73
2019-04-22T12:06:47.344Z,11.70
2019-04-22T12:09:53.387Z,8.80
2019-04-22T12:12:59.992Z,8.80
2019-04-22T12:16:05.627Z,8.73
2019-04-22T12:19:11.331Z,9.87
2019-04-22T12:22:17.338Z,10.67
2019-04-22T12:25:34.653Z,14.73
2019-04-22T12:28:32.943Z,12.03
2019-04-22T12:31:39.811Z,11.83
2019-04-22T12:34:47.066Z,11.10
2019-04-22T12:37:59.147Z,10.47
2019-04-22T12:41:04.950Z,10.53
2019-04-22T12:44:07.757Z,7.53
2019-04-22T12:47:14.909Z,10.27
2019-04-22T12:50:27.252Z,12.57
2019-04-22T12:53:28.235Z,8.00
2019-04-22T12:56:35.446Z,10.77
2019-04-22T12:59:41.842Z,8.33
2019-04-22T13:02:47.477Z,8.60
2019-04-22T13:05:53.898Z,6.97
2019-04-22T13:09:00.214Z,8.50
2019-04-22T13:12:10.981Z,7.40
2019-04-22T13:15:20.079Z,8.20
2019-04-22T13:18:35.523Z,8.30
2019-04-22T13:21:33.094Z,9.43
2019-04-22T13:24:41.630Z,7.80
2019-04-22T13:27:46.992Z,7.87
2019-04-22T13:30:54.815Z,8.10
2019-04-22T13:34:02.314Z,6.73
2019-04-22T13:37:07.491Z,8.27
2019-04-22T13:40:14.897Z,10.03
2019-04-22T13:43:20.874Z,8.03
2019-04-22T13:46:30.605Z,9.73
2019-04-22T13:50:11.650Z,7.47
2019-04-22T13:53:24.509Z,6.40
2019-04-22T13:56:15.431Z,8.50
2019-04-22T13:59:08.541Z,8.90
2019-04-22T14:02:36.945Z,7.83
2019-04-22T14:05:44.848Z,10.23
2019-04-22T14:08:51.474Z,9.10
2019-04-22T14:12:02.988Z,9.23
2019-04-22T14:15:06.299Z,8.67
2019-04-22T14:18:12.842Z,8.20
2019-04-22T14:21:18.797Z,7.40
2019-04-22T14:24:26.003Z,9.60
2019-04-22T14:27:44.391Z,8.03
2019-04-22T14:30:42.320Z,7.77
2019-04-22T14:33:53.646Z,15.20
2019-04-22T14:36:55.547Z,10.30
2019-04-22T14:40:07.086Z,7.00
2019-04-22T14:43:29.028Z,8.20
2019-04-22T14:46:38.942Z,9.37
2019-04-22T14:49:48.183Z,6.77
2019-04-22T14:52:50.681Z,7.20
2019-04-22T14:55:40.369Z,7.97
2019-04-22T14:58:46.833Z,8.17
2019-04-22T15:01:52.220Z,7.57
2019-04-22T15:04:58.392Z,6.50
2019-04-22T15:08:03.825Z,10.87
2019-04-22T15:11:09.063Z,8.17
2019-04-22T15:14:15.330Z,4.90
2019-04-22T15:17:47.119Z,5.90
2019-04-22T15:21:00.628Z,10.60
2019-04-22T15:24:25.355Z,10.63
2019-04-22T15:27:33.074Z,5.40
2019-04-22T15:30:39.402Z,5.27
2019-04-22T15:33:48.467Z,4.13
2019-04-22T15:36:51.902Z,7.43
2019-04-22T15:40:00.568Z,3.67
2019-04-22T15:43:06.591Z,3.97
2019-04-22T15:46:12.198Z,3.93
2019-04-22T15:49:18.164Z,6.00
2019-04-22T15:52:33.801Z,5.30
2019-04-22T15:55:32.621Z,6.97
2019-04-22T15:58:37.999Z,4.90
2019-04-22T16:01:44.760Z,4.60
2019-04-22T16:04:50.569Z,4.43
2019-04-22T16:07:59.158Z,6.43
2019-04-22T16:11:06.055Z,5.67
2019-04-22T16:14:15.154Z,5.60
2019-04-22T16:17:18.833Z,6.93
2019-04-22T16:20:25.590Z,4.83
2019-04-22T16:23:54.342Z,7.40
2019-04-22T16:27:04.520Z,5.13
2019-04-22T16:30:10.156Z,5.50
2019-04-22T16:33:15.618Z,5.93
2019-04-22T16:36:20.894Z,5.50
2019-04-22T16:39:26.925Z,5.83
2019-04-22T16:42:42.562Z,7.47
2019-04-22T16:45:39.998Z,5.53
2019-04-22T16:48:45.566Z,5.10
2019-04-22T16:51:52.062Z,5.13
2019-04-22T16:54:59.057Z,6.13
2019-04-22T16:58:07.027Z,3.80
2019-04-22T17:01:32.648Z,4.30
2019-04-22T17:04:57.672Z,3.50
2019-04-22T17:08:03.120Z,3.73
2019-04-22T17:11:09.750Z,3.23
2019-04-22T17:14:18.020Z,4.33
2019-04-22T17:17:22.408Z,6.80
2019-04-22T17:20:29.144Z,3.37
2019-04-22T17:23:35.845Z,4.73
2019-04-22T17:26:42.371Z,4.00
2019-04-22T17:29:48.340Z,3.30
2019-04-22T17:32:54.756Z,3.40
2019-04-22T17:36:01.090Z,5.37
2019-04-22T17:39:24.691Z,3.07
2019-04-22T17:42:39.948Z,3.20
2019-04-22T17:45:57.296Z,4.77
2019-04-22T17:49:17.014Z,7.90
2019-04-22T17:52:32.904Z,3.30
2019-04-22T17:55:37.041Z,4.03
2019-04-22T17:58:45.101Z,3.33
2019-04-22T18:01:43.379Z,3.80
2019-04-22T18:04:46.383Z,3.33
2019-04-22T18:08:05.483Z,2.80
2019-04-22T18:11:18.819Z,3.10
2019-04-22T18:17:32.404Z,3.60
2019-04-22T18:20:27.486Z,3.20
2019-04-22T18:23:24.866Z,5.80
2019-04-22T18:26:47.578Z,3.30
2019-04-22T18:29:48.443Z,3.23
2019-04-22T18:33:02.748Z,3.57
2019-04-22T18:36:06.840Z,4.30
2019-04-22T18:39:25.165Z,3.30
2019-04-22T18:42:21.224Z,3.40
2019-04-22T18:45:39.656Z,3.97
2019-04-22T18:48:37.778Z,5.97
2019-04-22T18:51:57.299Z,3.87
2019-04-22T18:55:16.637Z,3.77
2019-04-22T18:58:22.723Z,3.93
2019-04-22T19:01:17.758Z,3.90
2019-04-22T19:04:31.703Z,5.90
2019-04-22T19:08:01.314Z,4.00
2019-04-22T19:11:05.009Z,5.27
2019-04-22T19:14:05.931Z,5.07
2019-04-22T19:17:30.006Z,3.97
2019-04-22T19:20:27.171Z,3.83
2019-04-22T19:23:30.465Z,5.37
2019-04-22T19:26:44.653Z,5.33
2019-04-22T19:29:44.534Z,4.83
2019-04-22T19:32:50.810Z,5.13
2019-04-22T19:35:56.289Z,4.93
2019-04-22T19:38:59.166Z,5.20
2019-04-22T19:42:09.577Z,4.40
2019-04-22T19:45:17.281Z,5.30
2019-04-22T19:48:32.990Z,5.00
2019-04-22T19:51:36.905Z,3.60
2019-04-22T19:54:38.731Z,4.00
2019-04-22T19:57:43.175Z,5.13
2019-04-22T20:01:13.056Z,4.63
2019-04-22T20:04:41.647Z,4.40
2019-04-22T20:07:38.633Z,5.40
2019-04-22T20:10:45.940Z,3.60
2019-04-22T20:14:01.335Z,5.50
2019-04-22T20:16:59.805Z,6.07
2019-04-22T20:20:17.627Z,6.27
2019-04-22T20:23:14.510Z,4.03
2019-04-22T20:26:17.921Z,4.80
2019-04-22T20:29:37.628Z,4.13
2019-04-22T20:32:41.805Z,5.13
2019-04-22T20:35:50.565Z,6.57
2019-04-22T20:38:56.547Z,9.10
2019-04-22T20:42:21.362Z,4.67
2019-04-22T20:45:19.573Z,11.00
2019-04-22T20:48:12.984Z,4.40
2019-04-22T20:51:36.160Z,5.37
2019-04-22T20:54:40.785Z,4.80
2019-04-22T20:57:48.367Z,6.10
2019-04-22T21:00:48.881Z,5.90
2019-04-22T21:03:47.011Z,5.27
2019-04-22T21:07:05.090Z,8.40
2019-04-22T21:10:14.892Z,4.30
2019-04-22T21:13:19.798Z,6.83
2019-04-22T21:16:34.821Z,5.77
2019-04-22T21:19:56.767Z,8.13
2019-04-22T21:22:43.354Z,4.40
2019-04-22T21:25:39.565Z,4.77
2019-04-22T21:28:53.584Z,11.30
2019-04-22T21:32:10.796Z,4.60
2019-04-22T21:35:23.153Z,5.20
2019-04-22T21:38:24.210Z,4.90
2019-04-22T21:41:24.988Z,4.90
2019-04-22T21:44:33.963Z,4.20
2019-04-22T21:47:49.938Z,5.10
2019-04-22T21:50:58.038Z,6.47
2019-04-22T21:54:08.097Z,12.07
2019-04-22T21:57:35.631Z,6.43
2019-04-22T22:04:00.290Z,6.83
2019-04-22T22:06:55.658Z,8.13
2019-04-22T22:10:09.154Z,9.00
2019-04-22T22:13:19.437Z,6.97
2019-04-22T22:16:18.816Z,6.77
2019-04-22T22:19:32.741Z,6.70
2019-04-22T22:22:59.933Z,6.20
2019-04-22T22:25:43.722Z,6.23
2019-04-22T22:29:21.584Z,8.23
2019-04-22T22:32:11.654Z,5.53
2019-04-22T22:35:16.456Z,9.40
2019-04-22T22:38:19.589Z,8.03
2019-04-22T22:41:07.756Z,10.43
2019-04-22T22:44:21.184Z,13.13
2019-04-22T22:47:42.231Z,10.13
2019-04-22T22:50:48.926Z,9.93
2019-04-22T22:54:01.822Z,5.93
2019-04-22T22:57:08.771Z,8.30
2019-04-22T23:00:03.945Z,8.77
2019-04-22T23:03:36.456Z,7.17
2019-04-22T23:06:29.680Z,7.40
2019-04-22T23:09:30.873Z,9.20
2019-04-22T23:12:55.656Z,8.03
2019-04-22T23:15:41.890Z,6.73
2019-04-22T23:18:34.097Z,11.47
2019-04-22T23:21:45.732Z,8.40
2019-04-22T23:25:14.461Z,13.20
2019-04-22T23:28:30.089Z,7.90
2019-04-22T23:31:42.086Z,9.30
2019-04-22T23:34:56.051Z,7.47
2019-04-22T23:38:03.463Z,8.20
2019-04-22T23:41:38.895Z,7.73
2019-04-22T23:44:36.709Z,10.00
2019-04-22T23:47:35.623Z,7.93
2019-04-22T23:50:54.157Z,7.87
2019-04-22T23:54:15.223Z,11.33
2019-04-22T23:57:00.140Z,7.80
